Time;durP1;ratioP1;P1;durP2;ratioP2;P2;SDS_P1;SDS_P2;PMS_P1;PMS_P2;Temp;Humidity;BMP_temperature;BMP_pressure;BME280_temperature;BME280_humidity;BME280_pressure;Samples;Min_cycle;Max_cycle;Signal;HPM_P1;HPM_P2
2023/06/26 00:00:24;;;;;;;13.00;12.20;;;22.50;93.70;;;;;;4854520;29;20473;-83
2023/06/26 00:02:53;;;;;;;14.63;13.63;;;22.50;94.30;;;;;;4857745;29;20877;-84
2023/06/26 00:05:21;;;;;;;13.67;12.83;;;22.40;93.20;;;;;;4852542;29;20498;-86
2023/06/26 00:07:49;;;;;;;15.00;14.00;;;22.40;94.00;;;;;;4865703;29;20562;-84
2023/06/26 00:10:17;;;;;;;14.13;13.33;;;22.30;93.80;;;;;;4853500;29;20497;-84
2023/06/26 00:12:47;;;;;;;13.33;12.63;;;22.30;93.90;;;;;;4855358;29;20459;-84
2023/06/26 00:15:15;;;;;;;14.40;13.40;;;22.20;94.30;;;;;;4856967;29;20918;-85
2023/06/26 00:17:44;;;;;;;14.00;13.20;;;22.20;95.30;;;;;;4854282;29;20469;-86
2023/06/26 00:20:16;;;;;;;14.93;14.03;;;22.20;95.90;;;;;;4856774;29;20473;-86
2023/06/26 00:22:45;;;;;;;14.63;13.73;;;22.10;95.00;;;;;;4854546;29;20468;-85
2023/06/26 00:25:13;;;;;;;14.60;13.70;;;22.10;95.40;;;;;;4851850;29;20480;-86
2023/06/26 00:27:41;;;;;;;13.47;12.77;;;22.10;96.50;;;;;;4856291;29;20471;-83
2023/06/26 00:30:12;;;;;;;13.97;13.17;;;22.10;96.10;;;;;;4847392;29;20483;-85
2023/06/26 00:32:40;;;;;;;14.17;13.37;;;22.10;96.20;;;;;;4854093;29;20492;-84
2023/06/26 00:35:08;;;;;;;14.57;13.57;;;22.00;97.20;;;;;;4852068;29;21029;-85
2023/06/26 00:37:37;;;;;;;14.73;13.63;;;22.00;97.20;;;;;;4854391;29;20977;-84
2023/06/26 00:40:06;;;;;;;15.40;14.40;;;21.90;97.20;;;;;;4857902;29;20499;-84
2023/06/26 00:42:34;;;;;;;15.40;14.40;;;21.90;97.00;;;;;;4858651;29;20467;-86
2023/06/26 00:45:03;;;;;;;14.17;13.37;;;21.90;97.90;;;;;;4854086;29;20496;-85
2023/06/26 00:47:33;;;;;;;13.90;13.10;;;21.80;97.50;;;;;;4858168;29;21001;-86
2023/06/26 00:50:01;;;;;;;14.90;13.80;;;21.80;98.30;;;;;;4863094;29;20981;-84
2023/06/26 00:52:30;;;;;;;14.40;13.40;;;21.80;98.50;;;;;;4853531;29;20495;-86
2023/06/26 00:54:59;;;;;;;14.90;14.00;;;21.80;99.30;;;;;;4855907;29;20558;-86
2023/06/26 00:57:28;;;;;;;14.53;13.63;;;21.70;99.30;;;;;;4858013;29;20460;-83
2023/06/26 00:59:56;;;;;;;15.00;14.00;;;21.80;99.90;;;;;;4858310;29;20468;-86
2023/06/26 01:02:27;;;;;;;14.20;13.50;;;21.70;99.90;;;;;;4857099;29;20460;-82
2023/06/26 01:04:57;;;;;;;14.23;13.33;;;21.70;99.90;;;;;;4862003;29;20483;-86
2023/06/26 01:07:25;;;;;;;15.20;14.20;;;21.70;99.90;;;;;;4859516;29;20469;-86
2023/06/26 01:09:54;;;;;;;14.00;13.10;;;21.60;99.90;;;;;;4857421;29;20462;-86
2023/06/26 01:12:23;;;;;;;15.13;14.10;;;21.60;99.90;;;;;;4859679;29;20483;-86
2023/06/26 01:14:51;;;;;;;14.40;13.60;;;21.50;99.90;;;;;;4860290;29;20573;-84
2023/06/26 01:17:21;;;;;;;14.77;13.87;;;21.50;99.90;;;;;;4864523;29;20468;-86
2023/06/26 01:19:50;;;;;;;14.63;13.80;;;21.50;99.90;;;;;;4859816;29;20464;-86
2023/06/26 01:22:26;;;;;;;15.47;14.47;;;21.50;99.90;;;;;;4860183;29;20470;-84
2023/06/26 01:25:04;;;;;;;14.13;13.40;;;21.40;99.90;;;;;;4862256;29;20499;-87
2023/06/26 01:27:35;;;;;;;14.70;13.70;;;21.40;99.90;;;;;;4856934;29;20508;-85
2023/06/26 01:30:05;;;;;;;14.57;13.73;;;21.40;99.90;;;;;;4859187;29;20453;-87
2023/06/26 01:32:34;;;;;;;14.73;13.80;;;21.50;99.90;;;;;;4859848;29;20830;-85
2023/06/26 01:35:03;;;;;;;14.70;13.80;;;21.40;99.90;;;;;;4859272;29;20495;-83
2023/06/26 01:37:31;;;;;;;15.10;14.20;;;21.40;99.90;;;;;;4862160;29;20550;-83
2023/06/26 01:40:00;;;;;;;15.00;14.30;;;21.40;99.90;;;;;;4862706;29;20491;-82
2023/06/26 01:42:28;;;;;;;15.50;14.60;;;21.40;99.90;;;;;;4857812;29;20472;-85
2023/06/26 01:44:58;;;;;;;14.10;13.30;;;21.30;99.90;;;;;;4855868;29;20887;-81
2023/06/26 01:47:30;;;;;;;15.70;14.60;;;21.40;99.90;;;;;;4861136;29;20556;-84
2023/06/26 01:50:06;;;;;;;15.13;14.23;;;21.40;99.90;;;;;;4854007;29;20948;-84
2023/06/26 01:52:41;;;;;;;14.10;13.37;;;21.40;99.90;;;;;;4856522;29;20522;-84
2023/06/26 01:55:18;;;;;;;15.00;14.10;;;21.50;99.90;;;;;;4854787;29;20507;-87
2023/06/26 01:57:47;;;;;;;14.40;13.60;;;21.50;99.90;;;;;;4857823;29;21001;-85
2023/06/26 02:00:20;;;;;;;15.17;14.37;;;21.50;99.90;;;;;;4858987;29;20480;-87
2023/06/26 02:02:48;;;;;;;14.63;13.83;;;21.40;99.90;;;;;;4862041;29;20451;-85
2023/06/26 02:05:17;;;;;;;14.93;14.10;;;21.40;99.90;;;;;;4859703;29;20483;-85
2023/06/26 02:07:45;;;;;;;13.50;12.80;;;21.30;99.90;;;;;;4855381;29;20474;-85
2023/06/26 02:10:13;;;;;;;15.00;14.13;;;21.30;99.90;;;;;;4859404;29;20571;-85
2023/06/26 02:12:42;;;;;;;15.57;14.60;;;21.20;99.90;;;;;;4868912;29;20481;-86
2023/06/26 02:15:10;;;;;;;14.47;13.57;;;21.20;99.90;;;;;;4855373;29;20985;-87
2023/06/26 02:17:40;;;;;;;22.03;19.73;;;21.10;99.90;;;;;;4861810;29;20842;-85
2023/06/26 02:20:10;;;;;;;28.93;23.60;;;21.10;99.90;;;;;;4855526;29;20544;-88
2023/06/26 02:22:38;;;;;;;44.73;31.40;;;21.10;99.90;;;;;;4857882;29;20869;-88
2023/06/26 02:25:07;;;;;;;51.47;32.17;;;21.10;99.90;;;;;;4856325;29;20500;-85
2023/06/26 02:27:35;;;;;;;36.10;28.73;;;21.00;99.90;;;;;;4854119;29;21008;-84
2023/06/26 02:30:04;;;;;;;52.57;34.33;;;21.00;99.90;;;;;;4858772;29;20546;-85
2023/06/26 02:32:32;;;;;;;37.83;28.07;;;21.00;99.90;;;;;;4859171;29;21010;-86
2023/06/26 02:35:01;;;;;;;21.00;18.80;;;21.00;99.90;;;;;;4854655;29;20872;-85
2023/06/26 02:37:30;;;;;;;22.07;19.87;;;20.90;99.90;;;;;;4855597;29;20487;-87
2023/06/26 02:39:58;;;;;;;19.67;17.90;;;20.90;99.90;;;;;;4861939;29;20455;-85
2023/06/26 02:42:26;;;;;;;20.70;18.67;;;20.90;99.90;;;;;;4855119;29;20469;-87
2023/06/26 02:44:54;;;;;;;20.00;18.40;;;20.90;99.90;;;;;;4857363;29;20500;-84
2023/06/26 02:47:22;;;;;;;19.50;17.90;;;20.90;99.90;;;;;;4858405;29;21040;-85
2023/06/26 02:49:50;;;;;;;18.00;16.70;;;20.90;99.90;;;;;;4855310;29;20463;-85
2023/06/26 02:52:20;;;;;;;18.37;16.97;;;20.80;99.90;;;;;;4860273;29;20484;-86
2023/06/26 02:54:48;;;;;;;16.40;15.40;;;20.80;99.90;;;;;;4856080;29;20480;-84
2023/06/26 02:57:17;;;;;;;16.00;15.10;;;20.80;99.90;;;;;;4861599;29;20802;-84
2023/06/26 02:59:45;;;;;;;17.47;16.27;;;20.80;99.90;;;;;;4856131;29;20460;-86
2023/06/26 03:02:13;;;;;;;17.00;16.00;;;20.70;99.90;;;;;;4851311;29;20477;-86
2023/06/26 03:04:42;;;;;;;17.43;16.23;;;20.70;99.90;;;;;;4855856;29;20621;-87
2023/06/26 03:07:11;;;;;;;16.00;15.10;;;20.70;99.90;;;;;;4857767;29;20823;-87
2023/06/26 03:09:41;;;;;;;16.90;15.90;;;20.80;99.90;;;;;;4852839;29;20986;-86
2023/06/26 03:12:10;;;;;;;15.73;14.93;;;20.70;99.90;;;;;;4851464;29;20477;-84
2023/06/26 03:14:38;;;;;;;16.70;15.73;;;20.70;99.90;;;;;;4860675;29;21029;-87
2023/06/26 03:17:07;;;;;;;15.33;14.50;;;20.70;99.90;;;;;;4855780;29;20675;-84
2023/06/26 03:19:35;;;;;;;17.20;16.13;;;20.70;99.90;;;;;;4859879;29;20884;-84
2023/06/26 03:22:03;;;;;;;16.43;15.43;;;20.70;99.90;;;;;;4860388;29;20463;-84
2023/06/26 03:24:33;;;;;;;17.60;16.20;;;20.70;99.90;;;;;;4855913;29;20496;-84
2023/06/26 03:27:03;;;;;;;15.63;14.73;;;20.60;99.90;;;;;;4854783;29;20978;-85
2023/06/26 03:29:31;;;;;;;16.30;15.30;;;20.60;99.90;;;;;;4855939;29;20455;-84
2023/06/26 03:31:59;;;;;;;16.67;15.57;;;20.60;99.90;;;;;;4859139;29;20971;-86
2023/06/26 03:34:27;;;;;;;17.30;16.20;;;20.60;99.90;;;;;;4856695;29;20507;-85
2023/06/26 03:36:55;;;;;;;15.90;15.00;;;20.60;99.90;;;;;;4858528;29;20467;-84
2023/06/26 03:39:23;;;;;;;15.17;14.13;;;20.70;99.90;;;;;;4859501;29;20471;-84
2023/06/26 03:41:53;;;;;;;16.03;15.03;;;20.70;99.90;;;;;;4857367;29;20464;-85
2023/06/26 03:44:23;;;;;;;16.73;15.83;;;20.70;99.90;;;;;;4855916;29;20515;-86
2023/06/26 03:46:51;;;;;;;15.70;14.90;;;20.70;99.90;;;;;;4856843;29;20861;-84
2023/06/26 03:49:19;;;;;;;16.43;15.43;;;20.70;99.90;;;;;;4862034;29;20456;-84
2023/06/26 03:51:48;;;;;;;15.90;14.90;;;20.70;99.90;;;;;;4859663;29;20471;-84
2023/06/26 03:54:16;;;;;;;16.70;15.70;;;20.60;99.90;;;;;;4853887;29;20491;-87
2023/06/26 03:56:44;;;;;;;15.93;15.13;;;20.60;99.90;;;;;;4854935;29;21006;-84
2023/06/26 03:59:12;;;;;;;17.23;16.17;;;20.60;99.90;;;;;;4857831;29;20486;-85
2023/06/26 04:01:42;;;;;;;15.93;14.93;;;20.60;99.90;;;;;;4855508;29;20468;-86
2023/06/26 04:04:10;;;;;;;17.67;16.67;;;20.60;99.90;;;;;;4856834;29;20539;-86
2023/06/26 04:06:39;;;;;;;16.33;15.50;;;20.60;99.90;;;;;;4858399;29;20459;-83
2023/06/26 04:09:07;;;;;;;17.70;16.70;;;20.60;99.90;;;;;;4860557;29;20547;-86
2023/06/26 04:11:35;;;;;;;18.27;17.17;;;20.60;99.90;;;;;;4856155;29;20476;-85
2023/06/26 04:14:04;;;;;;;17.40;16.30;;;20.60;99.90;;;;;;4861663;29;20479;-84
2023/06/26 04:16:36;;;;;;;17.53;16.33;;;20.70;99.90;;;;;;4858838;29;20507;-84
2023/06/26 04:19:06;;;;;;;17.13;16.13;;;20.60;99.90;;;;;;4863841;29;20565;-86
2023/06/26 04:21:34;;;;;;;17.20;16.13;;;20.70;99.90;;;;;;4861135;29;20955;-84
2023/06/26 04:24:02;;;;;;;17.77;16.70;;;20.60;99.90;;;;;;4864320;29;20545;-82
2023/06/26 04:26:33;;;;;;;17.77;16.57;;;20.60;99.90;;;;;;4864132;29;20677;-87
2023/06/26 04:29:02;;;;;;;19.13;17.63;;;20.60;99.90;;;;;;4855042;29;20555;-88
2023/06/26 04:31:30;;;;;;;18.67;17.47;;;20.60;99.90;;;;;;4856853;29;20563;-85
2023/06/26 04:33:59;;;;;;;18.90;17.70;;;20.60;99.90;;;;;;4858295;29;20476;-76
2023/06/26 04:36:29;;;;;;;17.70;16.60;;;20.70;99.90;;;;;;4858331;29;20818;-75
2023/06/26 04:38:57;;;;;;;18.80;17.50;;;20.70;99.90;;;;;;4852069;29;20460;-71
2023/06/26 04:41:25;;;;;;;17.27;16.17;;;20.70;99.90;;;;;;4855485;29;20471;-71
2023/06/26 04:43:54;;;;;;;18.50;17.40;;;20.70;99.90;;;;;;4852145;29;20651;-71
2023/06/26 04:46:22;;;;;;;19.07;17.70;;;20.70;99.90;;;;;;4852095;29;20858;-71
2023/06/26 04:48:50;;;;;;;18.53;17.23;;;20.80;99.90;;;;;;4858620;29;20970;-74
2023/06/26 04:51:20;;;;;;;20.13;18.93;;;20.80;99.90;;;;;;4855233;29;20505;-71
2023/06/26 04:53:50;;;;;;;17.17;16.27;;;20.90;99.90;;;;;;4857307;29;20495;-72
2023/06/26 04:56:18;;;;;;;19.87;18.70;;;20.90;99.90;;;;;;4845518;29;20579;-82
2023/06/26 04:58:46;;;;;;;18.50;17.50;;;21.00;99.90;;;;;;4865637;29;20533;-84
2023/06/26 05:01:17;;;;;;;18.50;17.30;;;21.10;99.90;;;;;;4848668;29;22068;-82
2023/06/26 05:03:55;;;;;;;18.33;17.33;;;21.10;99.90;;;;;;4840390;29;20493;-82
2023/06/26 05:06:23;;;;;;;18.33;17.20;;;21.10;99.90;;;;;;4859863;29;21437;-84
2023/06/26 05:08:53;;;;;;;18.60;17.40;;;21.20;99.90;;;;;;4862031;29;20468;-83
2023/06/26 05:11:21;;;;;;;19.33;18.17;;;21.20;99.90;;;;;;4852134;29;20477;-84
2023/06/26 05:13:50;;;;;;;17.50;16.50;;;21.20;99.90;;;;;;4851613;29;20318;-86
2023/06/26 05:16:18;;;;;;;19.25;18.05;;;21.30;99.90;;;;;;4852402;29;20767;-84
2023/06/26 05:18:46;;;;;;;17.23;16.33;;;21.30;99.90;;;;;;4850415;29;20248;-85
2023/06/26 05:21:27;;;;;;;17.10;16.10;;;21.40;99.90;;;;;;4855784;29;20552;-85
2023/06/26 05:24:01;;;;;;;16.50;15.70;;;21.50;99.90;;;;;;4862036;29;20581;-83
2023/06/26 05:26:38;;;;;;;16.47;15.57;;;21.50;99.90;;;;;;4862092;29;20911;-83
2023/06/26 05:33:38;;;;;;;16.60;15.70;;;21.70;99.90;;;;;;4864637;29;20900;-84
2023/06/26 05:36:13;;;;;;;17.30;16.30;;;21.80;99.90;;;;;;4859596;29;20488;-83
2023/06/26 05:39:36;;;;;;;17.70;16.60;;;21.80;99.90;;;;;;4860036;29;20468;-83
2023/06/26 05:42:27;;;;;;;16.73;15.93;;;21.80;99.90;;;;;;4852123;29;20475;-84
2023/06/26 05:45:21;;;;;;;16.67;15.87;;;21.80;99.90;;;;;;4859092;29;20486;-84
2023/06/26 05:48:07;;;;;;;16.37;15.57;;;21.90;99.90;;;;;;4861621;29;20473;-84
2023/06/26 05:50:47;;;;;;;16.80;16.00;;;22.00;99.90;;;;;;4862243;29;20836;-86
2023/06/26 05:53:23;;;;;;;16.40;15.60;;;22.00;99.90;;;;;;4860897;29;20464;-84
2023/06/26 05:55:58;;;;;;;16.27;15.47;;;22.00;99.90;;;;;;4856835;29;20558;-85
2023/06/26 05:59:06;;;;;;;15.70;14.90;;;22.10;99.90;;;;;;4864943;29;20470;-83
2023/06/26 06:01:53;;;;;;;14.40;13.70;;;22.00;99.90;;;;;;4867761;29;20980;-84
2023/06/26 06:07:55;;;;;;;15.37;14.43;;;22.20;99.90;;;;;;4863663;29;20504;-84
2023/06/26 06:11:21;;;;;;;16.03;15.23;;;22.30;99.90;;;;;;4859333;29;20514;-83
2023/06/26 06:14:18;;;;;;;14.70;14.00;;;22.30;99.90;;;;;;4863502;29;20483;-84
2023/06/26 06:16:48;;;;;;;15.47;14.57;;;22.40;99.90;;;;;;4862633;29;20502;-84
2023/06/26 06:19:27;;;;;;;15.77;14.97;;;22.40;99.90;;;;;;4868695;29;20468;-84
2023/06/26 06:22:02;;;;;;;15.27;14.47;;;22.40;99.90;;;;;;4864433;29;21778;-85
2023/06/26 06:24:35;;;;;;;14.77;14.00;;;22.50;99.90;;;;;;4863290;29;21077;-86
2023/06/26 06:27:04;;;;;;;15.43;14.53;;;22.60;99.90;;;;;;4849994;29;20470;-84
2023/06/26 06:29:32;;;;;;;14.77;14.07;;;22.60;99.90;;;;;;4862729;29;20476;-85
2023/06/26 06:32:02;;;;;;;14.73;13.93;;;22.60;99.90;;;;;;4863600;29;21003;-88
2023/06/26 06:34:31;;;;;;;14.90;14.10;;;22.70;99.90;;;;;;4866058;29;20503;-85
2023/06/26 06:37:00;;;;;;;15.03;14.30;;;22.70;99.90;;;;;;4866987;29;20456;-83
2023/06/26 06:39:28;;;;;;;14.97;14.07;;;22.80;99.90;;;;;;4865771;29;20551;-86
2023/06/26 06:41:56;;;;;;;14.77;14.10;;;22.80;99.90;;;;;;4867658;29;20453;-86
2023/06/26 06:44:25;;;;;;;15.00;14.30;;;22.90;99.90;;;;;;4865324;29;20890;-83
2023/06/26 06:46:53;;;;;;;15.63;14.73;;;22.90;99.90;;;;;;4867064;29;20574;-83
2023/06/26 06:49:23;;;;;;;16.23;15.33;;;23.00;99.90;;;;;;4861282;29;20460;-83
2023/06/26 06:52:03;;;;;;;16.53;15.60;;;23.00;99.90;;;;;;4869686;29;20507;-81
2023/06/26 06:54:58;;;;;;;16.13;15.10;;;23.10;99.90;;;;;;4863696;29;20500;-84
2023/06/26 06:57:38;;;;;;;15.03;14.33;;;23.20;99.90;;;;;;4862263;29;21148;-83
2023/06/26 07:00:38;;;;;;;15.17;14.37;;;23.30;99.90;;;;;;4850410;29;20460;-82
2023/06/26 07:03:07;;;;;;;14.97;13.97;;;23.50;99.90;;;;;;4855849;29;20474;-84
2023/06/26 07:09:46;;;;;;;15.40;14.40;;;23.50;99.90;;;;;;4797584;29;20500;-82
2023/06/26 07:12:18;;;;;;;14.80;14.10;;;23.70;99.90;;;;;;4846688;29;20460;-80
2023/06/26 07:14:48;;;;;;;14.80;14.00;;;23.70;99.90;;;;;;4849793;29;20544;-83
2023/06/26 07:17:16;;;;;;;15.27;14.47;;;23.70;99.90;;;;;;4859588;29;20464;-83
2023/06/26 07:19:44;;;;;;;15.00;14.20;;;23.70;99.90;;;;;;4859263;29;20824;-83
2023/06/26 07:22:13;;;;;;;14.90;13.97;;;23.80;99.90;;;;;;4862612;29;20468;-81
2023/06/26 07:24:41;;;;;;;14.50;13.80;;;23.80;99.90;;;;;;4856639;29;20494;-82
2023/06/26 07:27:09;;;;;;;16.10;15.30;;;24.00;99.90;;;;;;4861084;29;20841;-82
2023/06/26 07:29:37;;;;;;;14.37;13.57;;;24.00;99.90;;;;;;4860269;29;20480;-81
2023/06/26 07:32:08;;;;;;;15.10;14.10;;;24.00;99.90;;;;;;4864897;29;20469;-82
2023/06/26 07:34:36;;;;;;;15.40;14.70;;;24.10;99.90;;;;;;4859728;29;21072;-82
2023/06/26 07:37:05;;;;;;;15.27;14.57;;;24.20;99.90;;;;;;4862028;29;21020;-83
2023/06/26 07:39:33;;;;;;;15.93;15.03;;;24.20;99.90;;;;;;4852712;29;20460;-83
2023/06/26 07:42:01;;;;;;;14.47;13.87;;;24.30;99.90;;;;;;4859694;29;20461;-82
2023/06/26 07:44:29;;;;;;;14.77;14.10;;;24.40;99.90;;;;;;4860505;29;20476;-83
2023/06/26 07:46:57;;;;;;;14.60;13.93;;;24.40;99.90;;;;;;4863004;29;20486;-82
2023/06/26 07:49:27;;;;;;;16.03;14.87;;;24.40;99.90;;;;;;4853560;29;20885;-82
2023/06/26 07:51:56;;;;;;;14.83;14.23;;;24.50;99.90;;;;;;4849815;29;20468;-82
2023/06/26 07:54:24;;;;;;;15.30;14.30;;;24.50;99.90;;;;;;4852614;29;20499;-83
2023/06/26 07:56:56;;;;;;;14.77;14.07;;;24.60;99.90;;;;;;4855025;29;20459;-79
2023/06/26 07:59:26;;;;;;;15.30;14.50;;;24.70;99.90;;;;;;4854817;29;20547;-83
2023/06/26 08:01:56;;;;;;;15.03;14.33;;;24.80;99.90;;;;;;4863434;29;20471;-83
2023/06/26 08:04:25;;;;;;;15.10;14.20;;;24.90;99.90;;;;;;4859364;29;20488;-82
2023/06/26 08:06:58;;;;;;;15.50;14.70;;;25.00;99.90;;;;;;4861142;29;20451;-83
2023/06/26 08:09:28;;;;;;;14.00;13.40;;;25.00;99.90;;;;;;4856427;29;20479;-83
2023/06/26 08:11:57;;;;;;;14.40;13.57;;;25.10;99.90;;;;;;4856844;29;20551;-81
2023/06/26 08:14:26;;;;;;;15.70;14.20;;;25.10;99.90;;;;;;4863626;29;20785;-82
2023/06/26 08:16:55;;;;;;;13.97;13.37;;;25.20;99.90;;;;;;4865085;29;20516;-81
2023/06/26 08:19:23;;;;;;;14.00;13.40;;;25.20;99.90;;;;;;4861417;29;20472;-80
2023/06/26 08:21:52;;;;;;;15.07;14.20;;;25.30;99.90;;;;;;4861471;29;20451;-83
2023/06/26 08:24:22;;;;;;;14.73;14.00;;;25.30;99.90;;;;;;4854902;29;20459;-83
2023/06/26 08:26:50;;;;;;;14.73;14.13;;;25.30;99.90;;;;;;4857604;29;20470;-82
2023/06/26 08:29:18;;;;;;;14.43;13.70;;;25.30;99.90;;;;;;4860455;29;20465;-82
2023/06/26 08:31:47;;;;;;;15.17;14.47;;;25.40;99.90;;;;;;4862111;29;20468;-82
2023/06/26 08:34:15;;;;;;;14.40;13.50;;;25.50;99.90;;;;;;4857844;29;20520;-82
2023/06/26 08:36:44;;;;;;;13.87;13.27;;;25.70;99.90;;;;;;4862006;29;20491;-83
2023/06/26 08:39:12;;;;;;;14.33;13.73;;;25.80;99.90;;;;;;4863107;29;20767;-83
2023/06/26 08:41:42;;;;;;;13.90;13.30;;;25.90;99.90;;;;;;4858788;29;20472;-80
2023/06/26 08:44:10;;;;;;;14.10;13.40;;;25.90;99.90;;;;;;4859399;29;20542;-81
2023/06/26 08:46:38;;;;;;;13.93;13.13;;;25.90;99.90;;;;;;4859926;29;21008;-82
2023/06/26 08:49:16;;;;;;;13.53;12.93;;;25.90;99.90;;;;;;4859018;29;20468;-82
2023/06/26 08:51:53;;;;;;;14.13;13.23;;;26.00;99.90;;;;;;4858688;29;20466;-82
2023/06/26 08:54:29;;;;;;;14.07;13.47;;;26.10;99.90;;;;;;4860852;29;20468;-82
2023/06/26 08:56:59;;;;;;;15.10;14.20;;;26.20;99.90;;;;;;4862422;29;20608;-82
2023/06/26 08:59:28;;;;;;;15.37;14.33;;;26.20;99.90;;;;;;4861624;29;20456;-83
2023/06/26 09:01:57;;;;;;;14.10;13.50;;;26.30;99.90;;;;;;4856423;29;20768;-82
2023/06/26 09:04:26;;;;;;;16.03;15.07;;;26.40;99.90;;;;;;4855156;29;20578;-83
2023/06/26 09:06:55;;;;;;;14.83;13.83;;;26.40;99.90;;;;;;4861460;29;20468;-83
2023/06/26 09:09:23;;;;;;;14.60;13.97;;;26.40;99.90;;;;;;4859077;29;20495;-83
2023/06/26 09:11:51;;;;;;;15.33;14.47;;;26.60;99.90;;;;;;4858008;29;20559;-84
2023/06/26 09:14:21;;;;;;;15.23;14.53;;;26.70;99.90;;;;;;4856440;29;20861;-83
2023/06/26 09:16:49;;;;;;;12.90;12.40;;;26.70;99.90;;;;;;4858554;29;20552;-83
2023/06/26 09:19:18;;;;;;;15.13;14.43;;;26.70;99.90;;;;;;4857957;29;20462;-84
2023/06/26 09:21:49;;;;;;;14.90;14.20;;;26.70;99.90;;;;;;4860590;29;20461;-83
2023/06/26 09:24:18;;;;;;;14.17;13.47;;;26.80;99.90;;;;;;4862842;29;20468;-84
2023/06/26 09:26:46;;;;;;;14.50;13.80;;;27.00;99.90;;;;;;4866047;29;20503;-83
2023/06/26 09:29:15;;;;;;;14.37;13.77;;;27.00;99.90;;;;;;4859533;29;20460;-83
2023/06/26 09:31:45;;;;;;;15.10;14.40;;;27.10;99.90;;;;;;4863034;29;20468;-82
2023/06/26 09:34:13;;;;;;;13.80;13.20;;;27.10;99.90;;;;;;4865766;29;20929;-83
2023/06/26 09:36:46;;;;;;;13.93;13.33;;;27.00;99.90;;;;;;4866115;29;20494;-83
2023/06/26 09:39:15;;;;;;;14.90;14.10;;;27.00;99.90;;;;;;4861453;29;20464;-83
2023/06/26 09:41:44;;;;;;;13.97;13.37;;;27.20;99.90;;;;;;4868038;29;20468;-83
2023/06/26 09:44:14;;;;;;;15.17;14.37;;;27.20;99.90;;;;;;4864417;29;20468;-83
2023/06/26 09:46:46;;;;;;;15.07;14.00;;;27.30;99.90;;;;;;4863122;29;20591;-82
2023/06/26 09:49:15;;;;;;;15.43;14.57;;;27.30;99.90;;;;;;4864658;29;20965;-83
2023/06/26 09:51:43;;;;;;;14.20;13.60;;;27.30;99.90;;;;;;4863621;29;20531;-83
2023/06/26 09:54:12;;;;;;;14.67;13.97;;;27.30;99.90;;;;;;4865144;29;20536;-82
2023/06/26 09:56:40;;;;;;;14.90;14.20;;;27.30;99.90;;;;;;4861037;29;20579;-82
2023/06/26 09:59:09;;;;;;;13.43;12.83;;;27.40;99.90;;;;;;4858070;29;20475;-83
2023/06/26 10:01:42;;;;;;;13.60;13.10;;;27.30;99.90;;;;;;4863284;29;20470;-83
2023/06/26 10:04:12;;;;;;;14.70;14.00;;;27.30;99.90;;;;;;4861385;29;20821;-84
2023/06/26 10:06:46;;;;;;;13.47;12.87;;;27.20;99.90;;;;;;4862814;29;20455;-83
2023/06/26 10:09:17;;;;;;;14.87;14.17;;;27.10;99.90;;;;;;4860768;29;21192;-81
2023/06/26 10:11:52;;;;;;;13.90;13.20;;;27.30;99.90;;;;;;4865390;29;20469;-83
2023/06/26 10:14:22;;;;;;;15.53;14.83;;;27.50;99.90;;;;;;4862911;29;20533;-84
2023/06/26 10:16:51;;;;;;;14.13;13.50;;;27.50;99.90;;;;;;4861413;29;20614;-84
2023/06/26 10:19:26;;;;;;;13.70;13.03;;;27.50;99.90;;;;;;4864412;29;20463;-83
2023/06/26 10:21:56;;;;;;;14.93;14.13;;;27.60;99.90;;;;;;4860468;29;21279;-82
2023/06/26 10:24:26;;;;;;;15.47;14.67;;;27.60;99.90;;;;;;4859090;29;20463;-83
2023/06/26 10:27:00;;;;;;;14.97;14.27;;;27.70;99.90;;;;;;4861121;29;20473;-83
2023/06/26 10:29:30;;;;;;;14.43;13.73;;;27.80;99.90;;;;;;4858293;29;20460;-81
2023/06/26 10:32:01;;;;;;;14.47;13.40;;;27.90;99.90;;;;;;4864340;29;20472;-83
2023/06/26 10:34:33;;;;;;;15.30;14.43;;;27.90;99.90;;;;;;4851714;29;20484;-83
2023/06/26 10:37:03;;;;;;;16.53;15.73;;;28.00;99.90;;;;;;4848913;29;20496;-82
2023/06/26 10:39:49;;;;;;;15.23;14.43;;;28.10;99.90;;;;;;4857750;29;20532;-83
2023/06/26 10:42:21;;;;;;;14.47;13.77;;;28.30;99.90;;;;;;4861977;29;20834;-83
2023/06/26 10:44:49;;;;;;;15.50;14.80;;;28.20;99.90;;;;;;4854796;29;20477;-83
2023/06/26 10:47:33;;;;;;;15.37;14.47;;;28.10;99.90;;;;;;4852228;29;21475;-83
2023/06/26 10:50:24;;;;;;;15.40;14.70;;;28.10;99.90;;;;;;4863034;29;20543;-83
2023/06/26 10:53:13;;;;;;;16.03;15.13;;;28.10;99.90;;;;;;4860176;29;20890;-83
2023/06/26 10:55:44;;;;;;;15.87;15.07;;;28.10;99.90;;;;;;4856634;29;20574;-83
2023/06/26 10:58:35;;;;;;;17.73;16.83;;;28.00;99.90;;;;;;4862647;29;21185;-82
2023/06/26 11:01:21;;;;;;;16.60;15.80;;;28.00;99.90;;;;;;4859557;29;20482;-83
2023/06/26 11:04:04;;;;;;;16.93;15.70;;;28.10;99.90;;;;;;4849636;29;20544;-82
2023/06/26 11:06:38;;;;;;;15.70;14.90;;;28.00;99.90;;;;;;4865830;29;20453;-82
2023/06/26 11:09:15;;;;;;;16.23;15.10;;;28.00;99.90;;;;;;4861181;29;20520;-82
2023/06/26 11:12:04;;;;;;;15.40;14.80;;;28.00;99.90;;;;;;4864407;29;20551;-83
2023/06/26 11:14:33;;;;;;;16.20;15.40;;;28.10;99.90;;;;;;4857071;29;20477;-83
2023/06/26 11:17:04;;;;;;;17.23;16.33;;;28.20;99.90;;;;;;4861048;29;20507;-83
2023/06/26 11:19:32;;;;;;;15.57;14.87;;;28.20;99.90;;;;;;4865500;29;20560;-83
2023/06/26 11:22:05;;;;;;;16.50;15.50;;;28.20;99.90;;;;;;4860415;29;21050;-83
2023/06/26 11:24:33;;;;;;;17.33;16.33;;;28.30;99.90;;;;;;4859908;29;20496;-83
2023/06/26 11:27:03;;;;;;;15.77;15.07;;;28.30;99.90;;;;;;4863815;29;20471;-83
2023/06/26 11:29:33;;;;;;;16.60;15.67;;;28.30;99.90;;;;;;4860191;29;20566;-83
2023/06/26 11:32:05;;;;;;;16.87;16.07;;;28.20;99.90;;;;;;4856934;29;20550;-81
2023/06/26 11:34:34;;;;;;;16.87;15.97;;;28.30;99.90;;;;;;4854976;29;20494;-83
2023/06/26 11:37:04;;;;;;;16.60;15.53;;;28.40;99.90;;;;;;4860655;29;20547;-82
2023/06/26 11:39:33;;;;;;;16.47;15.60;;;28.50;99.90;;;;;;4856874;29;20822;-82
2023/06/26 11:42:02;;;;;;;15.90;15.10;;;28.50;99.90;;;;;;4862309;29;20470;-83
2023/06/26 11:44:33;;;;;;;16.30;15.60;;;28.50;99.90;;;;;;4858734;29;20484;-83
2023/06/26 11:47:01;;;;;;;16.50;15.60;;;28.40;99.90;;;;;;4859544;29;20476;-83
2023/06/26 11:49:30;;;;;;;16.13;15.23;;;28.40;99.90;;;;;;4858368;29;20584;-81
2023/06/26 11:51:58;;;;;;;16.43;15.73;;;28.50;99.90;;;;;;4861362;29;21109;-83
2023/06/26 11:54:29;;;;;;;16.50;15.60;;;28.50;99.90;;;;;;4857713;29;20469;-82
2023/06/26 11:56:58;;;;;;;17.73;16.73;;;28.60;99.90;;;;;;4862443;29;20496;-83
2023/06/26 11:59:35;;;;;;;16.37;15.30;;;28.60;99.90;;;;;;4860953;29;20974;-83
2023/06/26 12:02:07;;;;;;;16.03;15.33;;;28.60;99.90;;;;;;4857577;29;20459;-82
2023/06/26 12:04:37;;;;;;;16.20;15.50;;;28.70;99.90;;;;;;4861501;29;21053;-84
2023/06/26 12:07:08;;;;;;;17.43;16.40;;;28.70;99.90;;;;;;4857826;29;20956;-83
2023/06/26 12:09:45;;;;;;;16.20;15.30;;;28.70;99.90;;;;;;4858531;29;20464;-81
2023/06/26 12:12:17;;;;;;;16.30;15.40;;;28.80;99.90;;;;;;4862295;29;20452;-83
2023/06/26 12:14:45;;;;;;;15.37;14.57;;;28.80;99.90;;;;;;4861249;29;20488;-83
2023/06/26 12:17:15;;;;;;;16.00;15.23;;;28.80;99.90;;;;;;4855525;29;20526;-84
2023/06/26 12:19:48;;;;;;;17.10;16.13;;;28.60;99.90;;;;;;4861792;29;20470;-83
2023/06/26 12:22:17;;;;;;;16.53;15.73;;;28.60;99.90;;;;;;4859925;29;20544;-83
2023/06/26 12:24:47;;;;;;;17.43;15.90;;;28.60;99.90;;;;;;4856703;29;21158;-83
2023/06/26 12:27:18;;;;;;;16.23;15.43;;;28.60;99.90;;;;;;4854480;29;20457;-83
2023/06/26 12:29:52;;;;;;;16.30;15.17;;;28.60;99.90;;;;;;4850428;29;20548;-82
2023/06/26 12:32:20;;;;;;;16.97;16.17;;;28.60;99.90;;;;;;4860080;29;20483;-84
2023/06/26 12:34:50;;;;;;;16.27;15.27;;;28.70;99.90;;;;;;4861881;29;20483;-83
2023/06/26 12:37:18;;;;;;;15.80;14.80;;;28.70;99.90;;;;;;4859184;29;20516;-83
2023/06/26 12:39:50;;;;;;;16.87;15.87;;;28.70;99.90;;;;;;4863030;29;20850;-83
2023/06/26 12:42:19;;;;;;;15.93;15.13;;;28.70;99.90;;;;;;4863420;29;20558;-82
2023/06/26 12:44:48;;;;;;;16.20;15.60;;;28.70;99.90;;;;;;4855098;29;20994;-84
2023/06/26 12:47:17;;;;;;;16.93;15.93;;;28.70;99.90;;;;;;4854201;29;20573;-83
2023/06/26 12:49:46;;;;;;;17.50;16.63;;;28.60;99.90;;;;;;4849583;29;20451;-84
2023/06/26 12:52:16;;;;;;;17.30;16.40;;;28.60;99.90;;;;;;4855337;29;20544;-81
2023/06/26 12:54:46;;;;;;;17.40;16.40;;;28.60;99.90;;;;;;4857804;29;20487;-84
2023/06/26 12:57:16;;;;;;;17.23;16.33;;;28.60;99.90;;;;;;4858393;29;20461;-83
2023/06/26 12:59:44;;;;;;;17.43;16.57;;;28.60;99.90;;;;;;4859603;29;20532;-82